Time;durP1;ratioP1;P1;durP2;ratioP2;P2;SDS_P1;SDS_P2;PMS_P1;PMS_P2;Temp;Humidity;BMP_temperature;BMP_pressure;BME280_temperature;BME280_humidity;BME280_pressure;Samples;Min_cycle;Max_cycle;Signal;HPM_P1;HPM_P2
2023/01/07 00:01:13;;;;;;;10.70;7.07;;;;;;;9.05;100.00;101582.66;5052755;28;20060;-59
2023/01/07 00:03:40;;;;;;;10.13;7.80;;;;;;;9.03;100.00;101582.75;5047473;28;20744;-58
2023/01/07 00:06:12;;;;;;;11.65;7.30;;;;;;;9.03;100.00;101577.44;5052807;28;20036;-58
2023/01/07 00:08:41;;;;;;;13.40;7.55;;;;;;;9.00;100.00;101576.78;5052727;28;20112;-58
2023/01/07 00:11:10;;;;;;;11.35;6.90;;;;;;;9.01;100.00;101574.03;5052774;28;20112;-57
2023/01/07 00:13:36;;;;;;;12.30;7.60;;;;;;;9.00;100.00;101579.44;5052503;28;20068;-59
2023/01/07 00:16:04;;;;;;;8.77;7.28;;;;;;;9.01;100.00;101567.88;5051712;28;20483;-58
2023/01/07 00:18:30;;;;;;;10.07;7.80;;;;;;;8.99;100.00;101565.34;5053145;28;20081;-56
2023/01/07 00:21:00;;;;;;;10.10;7.30;;;;;;;8.97;100.00;101567.19;5049603;28;20108;-57
2023/01/07 00:23:27;;;;;;;9.80;7.70;;;;;;;8.96;100.00;101564.63;5053005;28;20045;-58
2023/01/07 00:25:59;;;;;;;9.73;8.07;;;;;;;8.97;100.00;101571.66;5052778;28;20036;-59
2023/01/07 00:28:25;;;;;;;13.07;8.98;;;;;;;8.97;100.00;101563.69;5048908;28;20032;-59
2023/01/07 00:30:51;;;;;;;13.15;9.13;;;;;;;8.97;100.00;101561.06;5040497;28;20356;-58
2023/01/07 00:33:17;;;;;;;12.38;9.45;;;;;;;8.96;100.00;101569.94;5049045;28;20100;-59
2023/01/07 00:35:44;;;;;;;12.80;9.82;;;;;;;8.94;100.00;101556.78;5052212;28;20146;-59
2023/01/07 00:38:10;;;;;;;12.35;9.32;;;;;;;8.93;100.00;101555.09;5052387;28;20422;-58
2023/01/07 00:40:36;;;;;;;13.20;10.55;;;;;;;8.93;100.00;101547.13;5047156;28;20136;-59
2023/01/07 00:43:04;;;;;;;13.27;10.93;;;;;;;8.93;100.00;101541.84;5047258;28;20499;-58
2023/01/07 00:45:34;;;;;;;16.02;11.73;;;;;;;8.94;100.00;101553.28;5052895;28;20136;-58
2023/01/07 00:48:02;;;;;;;14.68;11.13;;;;;;;8.93;100.00;101544.50;5052728;28;20029;-59
2023/01/07 00:50:34;;;;;;;16.15;11.35;;;;;;;8.93;100.00;101541.00;5041200;28;20385;-58
2023/01/07 00:53:00;;;;;;;16.48;11.80;;;;;;;8.93;100.00;101539.19;5048520;28;20056;-58
2023/01/07 00:55:26;;;;;;;13.25;10.65;;;;;;;8.94;100.00;101535.59;5045039;28;20036;-58
2023/01/07 00:57:52;;;;;;;16.02;12.30;;;;;;;8.94;100.00;101540.03;5048105;28;20451;-57
2023/01/07 01:00:19;;;;;;;16.67;11.07;;;;;;;8.95;100.00;101524.06;5052462;28;20025;-58
2023/01/07 01:02:45;;;;;;;15.00;11.25;;;;;;;8.94;100.00;101524.13;5051803;28;20487;-58
2023/01/07 01:05:11;;;;;;;14.45;10.82;;;;;;;8.94;100.00;101521.50;5042096;28;20442;-57
2023/01/07 01:07:37;;;;;;;12.77;10.07;;;;;;;8.93;100.00;101509.22;5052006;28;20060;-57
2023/01/07 01:10:04;;;;;;;13.02;10.35;;;;;;;8.94;100.00;101510.88;5045995;28;20108;-58
2023/01/07 01:12:29;;;;;;;12.00;9.70;;;;;;;8.94;100.00;101506.44;5047951;28;20053;-58
2023/01/07 01:14:55;;;;;;;14.88;10.05;;;;;;;8.93;100.00;101512.69;5054326;28;20082;-58
2023/01/07 01:17:21;;;;;;;15.30;9.80;;;;;;;8.92;100.00;101505.69;5048611;28;20033;-57
2023/01/07 01:19:47;;;;;;;14.63;9.30;;;;;;;8.92;100.00;101499.53;5052424;28;20040;-59
2023/01/07 01:22:13;;;;;;;16.02;10.20;;;;;;;8.91;100.00;101496.03;5051655;28;20387;-58
2023/01/07 01:24:38;;;;;;;10.52;9.15;;;;;;;8.92;100.00;101494.25;5045451;28;20052;-57
2023/01/07 01:27:03;;;;;;;11.80;9.07;;;;;;;8.92;100.00;101494.25;5047562;28;20159;-58
2023/01/07 01:29:29;;;;;;;11.95;8.70;;;;;;;8.91;100.00;101496.03;5044199;28;20124;-60
2023/01/07 01:31:54;;;;;;;11.43;9.80;;;;;;;8.90;100.00;101489.03;5047791;28;20382;-58
2023/01/07 01:34:20;;;;;;;9.75;8.35;;;;;;;8.88;100.00;101485.63;5047517;28;20495;-58
2023/01/07 01:36:45;;;;;;;12.55;8.43;;;;;;;8.86;100.00;101487.53;5047606;28;20033;-56
2023/01/07 01:39:11;;;;;;;11.52;8.63;;;;;;;8.84;100.00;101486.72;5055420;28;20020;-58
2023/01/07 01:41:37;;;;;;;12.07;8.60;;;;;;;8.84;100.00;101489.38;5034142;28;20021;-57
2023/01/07 01:44:28;;;;;;;10.57;8.68;;;;;;;8.85;100.00;101477.84;5051887;28;20028;-58
2023/01/07 01:46:54;;;;;;;16.48;8.38;;;;;;;8.85;100.00;101488.44;5059134;28;20029;-58
2023/01/07 01:49:26;;;;;;;12.40;8.13;;;;;;;8.84;100.00;101494.69;5052753;28;20032;-56
2023/01/07 01:52:08;;;;;;;8.85;7.93;;;;;;;8.84;100.00;101489.38;5053750;28;20059;-58
2023/01/07 01:54:34;;;;;;;10.10;7.85;;;;;;;8.81;100.00;101493.09;5055321;28;20068;-58
2023/01/07 01:57:02;;;;;;;14.02;7.97;;;;;;;8.82;100.00;101493.94;5055431;28;20025;-57
2023/01/07 01:59:32;;;;;;;8.93;7.72;;;;;;;8.83;100.00;101491.19;5053832;28;20060;-57
2023/01/07 02:01:57;;;;;;;;;;;;;;;8.87;100.00;101486.56;5050894;28;20031;-59
2023/01/07 02:04:26;;;;;;;11.18;8.13;;;;;;;8.85;100.00;101488.44;5037972;28;19968;-57
2023/01/07 02:06:54;;;;;;;10.55;8.05;;;;;;;8.85;100.00;101485.81;5041007;28;20387;-58
2023/01/07 02:09:19;;;;;;;10.88;7.80;;;;;;;8.83;100.00;101488.53;5044902;28;20107;-58
2023/01/07 02:11:56;;;;;;;8.93;7.50;;;;;;;8.81;100.00;101485.13;5043239;28;20065;-59
2023/01/07 02:15:03;;;;;;;14.95;7.93;;;;;;;8.82;100.00;101488.63;5055636;28;20025;-59
2023/01/07 02:17:54;;;;;;;11.63;7.80;;;;;;;8.80;100.00;101483.41;5043714;28;20044;-58
2023/01/07 02:20:47;;;;;;;11.88;7.38;;;;;;;8.78;100.00;101482.66;5042285;28;20044;-59
2023/01/07 02:23:50;;;;;;;10.90;7.65;;;;;;;8.81;100.00;101481.63;5047972;28;20378;-57
2023/01/07 02:26:52;;;;;;;12.27;7.15;;;;;;;8.77;100.00;101480.09;5055830;28;20033;-59
2023/01/07 02:29:35;;;;;;;13.15;7.60;;;;;;;8.74;100.00;101475.81;5051420;28;20047;-60
2023/01/07 02:32:06;;;;;;;12.30;7.35;;;;;;;8.77;100.00;101477.44;5053358;28;20028;-58
2023/01/07 02:34:48;;;;;;;9.48;7.05;;;;;;;8.74;100.00;101481.13;5050923;28;20057;-58
2023/01/07 02:37:39;;;;;;;13.55;7.65;;;;;;;8.73;100.00;101484.72;5039314;28;20073;-59
2023/01/07 02:40:10;;;;;;;11.98;7.50;;;;;;;8.72;100.00;101477.72;5039477;28;20395;-58
2023/01/07 02:43:03;;;;;;;10.45;7.78;;;;;;;8.72;100.00;101466.28;5052126;28;20108;-58
2023/01/07 02:45:34;;;;;;;10.00;7.05;;;;;;;8.67;100.00;101467.38;5055082;28;20504;-59
2023/01/07 02:48:07;;;;;;;8.30;7.22;;;;;;;8.67;100.00;101470.03;5047952;28;20025;-58
2023/01/07 02:50:33;;;;;;;10.07;7.00;;;;;;;8.66;100.00;101464.81;5050842;28;20044;-58
2023/01/07 02:52:58;;;;;;;8.80;6.60;;;;;;;8.65;100.00;101458.69;5055006;28;20070;-58
2023/01/07 02:55:43;;;;;;;8.43;6.20;;;;;;;8.65;100.00;101461.34;5048191;28;20025;-58
2023/01/07 02:58:37;;;;;;;8.70;6.95;;;;;;;8.68;100.00;101465.63;5054870;28;20382;-59
2023/01/07 03:01:12;;;;;;;9.75;6.35;;;;;;;8.70;100.00;101466.38;5049970;28;20017;-59
2023/01/07 03:04:24;;;;;;;11.88;6.68;;;;;;;8.74;100.00;101464.38;5047899;28;20037;-59
2023/01/07 03:07:27;;;;;;;9.32;6.18;;;;;;;8.76;100.00;101455.41;5050098;28;20033;-58
2023/01/07 03:10:11;;;;;;;10.18;6.40;;;;;;;8.80;100.00;101458.72;5048725;28;20107;-58
2023/01/07 03:12:48;;;;;;;9.65;6.03;;;;;;;8.80;100.00;101446.34;5044836;28;20065;-57
2023/01/07 03:15:21;;;;;;;7.30;5.30;;;;;;;8.85;100.00;101443.41;5049100;28;20017;-59
2023/01/07 03:17:50;;;;;;;7.78;5.57;;;;;;;8.87;100.00;101441.53;5054308;28;20033;-56
2023/01/07 03:20:19;;;;;;;7.38;5.28;;;;;;;8.88;100.00;101443.25;5053841;28;20052;-58
2023/01/07 03:22:45;;;;;;;9.80;5.20;;;;;;;8.89;100.00;101440.50;5053247;28;20078;-57
2023/01/07 03:25:12;;;;;;;8.93;5.10;;;;;;;8.89;100.00;101427.25;5040989;28;20021;-57
2023/01/07 03:27:40;;;;;;;7.05;5.07;;;;;;;8.93;100.00;101424.44;5052952;28;20036;-60
2023/01/07 03:30:10;;;;;;;10.05;5.90;;;;;;;8.93;100.00;101422.63;5052767;28;20040;-58
2023/01/07 03:32:43;;;;;;;6.50;4.75;;;;;;;8.94;100.00;101420.81;5052984;28;20039;-57
2023/01/07 03:35:09;;;;;;;6.90;4.82;;;;;;;8.95;100.00;101418.06;5046865;28;20193;-58
2023/01/07 03:37:34;;;;;;;9.82;4.78;;;;;;;8.96;100.00;101418.91;5049300;28;20029;-55
2023/01/07 03:40:03;;;;;;;6.10;4.45;;;;;;;8.97;100.00;101429.41;5058910;28;20060;-56
2023/01/07 03:42:38;;;;;;;;;;;;;;;9.01;100.00;101416.84;5057004;28;20060;-57
2023/01/07 03:45:07;;;;;;;6.07;4.28;;;;;;;8.96;100.00;101419.78;5044438;28;20011;-55
2023/01/07 03:47:33;;;;;;;6.40;4.38;;;;;;;9.01;100.00;101411.53;5053028;28;20029;-58
2023/01/07 03:49:59;;;;;;;4.47;4.07;;;;;;;9.02;100.00;101406.16;5053284;28;20025;-55
2023/01/07 03:52:24;;;;;;;6.63;4.88;;;;;;;9.02;100.00;101405.31;5049926;28;20379;-58
2023/01/07 03:54:49;;;;;;;9.38;4.75;;;;;;;9.03;100.00;101402.56;5044294;28;20031;-57
2023/01/07 03:57:15;;;;;;;6.50;4.45;;;;;;;9.05;100.00;101402.47;5052595;28;20092;-58
2023/01/07 03:59:40;;;;;;;6.05;4.28;;;;;;;9.04;100.00;101400.75;5043391;28;20057;-58
2023/01/07 04:02:05;;;;;;;6.47;4.40;;;;;;;9.06;100.00;101406.84;5060868;28;20075;-58
2023/01/07 04:04:31;;;;;;;4.55;4.00;;;;;;;9.06;100.00;101398.88;5052626;28;20103;-57
2023/01/07 04:06:56;;;;;;;8.60;4.07;;;;;;;9.07;100.00;101389.97;5050484;28;20033;-57
2023/01/07 04:09:22;;;;;;;7.82;4.50;;;;;;;9.08;100.00;101391.69;5052897;28;20077;-59
2023/01/07 04:11:47;;;;;;;5.00;4.10;;;;;;;9.07;100.00;101382.88;5040161;28;20459;-57
2023/01/07 04:14:12;;;;;;;6.45;4.00;;;;;;;9.10;100.00;101381.00;5052644;28;20028;-58
2023/01/07 04:16:38;;;;;;;6.55;3.70;;;;;;;9.11;100.00;101377.38;5047432;28;20034;-58
2023/01/07 04:19:03;;;;;;;5.20;4.00;;;;;;;9.10;100.00;101367.75;5052962;28;20382;-56
2023/01/07 04:21:29;;;;;;;3.83;3.53;;;;;;;9.11;100.00;101366.78;5052416;28;20025;-57
2023/01/07 04:23:54;;;;;;;6.78;3.70;;;;;;;9.11;100.00;101361.47;5048126;28;20373;-57
2023/01/07 04:26:19;;;;;;;5.65;3.80;;;;;;;9.12;100.00;101360.53;5049848;28;20041;-58
2023/01/07 04:28:45;;;;;;;6.82;3.80;;;;;;;9.10;100.00;101352.69;5052168;28;20071;-57
2023/01/07 04:31:10;;;;;;;10.90;4.10;;;;;;;9.09;100.00;101356.28;5048484;28;20479;-56
2023/01/07 04:33:35;;;;;;;7.32;3.53;;;;;;;9.07;100.00;101345.78;5051971;28;20053;-57
2023/01/07 04:36:01;;;;;;;6.00;3.90;;;;;;;9.04;100.00;101348.63;5052028;28;20021;-57
2023/01/07 04:38:26;;;;;;;4.97;3.80;;;;;;;9.03;100.00;101346.91;5046889;28;20114;-57
2023/01/07 04:40:51;;;;;;;7.65;3.78;;;;;;;9.02;100.00;101342.56;5052127;28;20017;-57
2023/01/07 04:43:17;;;;;;;4.72;3.85;;;;;;;9.01;100.00;101332.94;5047166;28;20110;-57
2023/01/07 04:45:43;;;;;;;7.63;3.60;;;;;;;8.98;100.00;101338.41;5049494;28;20028;-56
2023/01/07 04:48:08;;;;;;;7.25;3.53;;;;;;;8.95;100.00;101333.28;5051374;28;20112;-56
2023/01/07 04:50:33;;;;;;;5.07;3.65;;;;;;;8.95;100.00;101335.94;5051822;28;20021;-56
2023/01/07 04:52:59;;;;;;;4.85;3.33;;;;;;;8.93;100.00;101326.41;5051413;28;20041;-57
2023/01/07 04:55:24;;;;;;;7.82;3.72;;;;;;;8.91;100.00;101329.16;5051763;28;20057;-58
2023/01/07 04:57:49;;;;;;;6.20;3.17;;;;;;;8.89;100.00;101323.94;5052317;28;20075;-57
2023/01/07 05:00:15;;;;;;;5.15;3.35;;;;;;;8.89;100.00;101328.38;5051499;28;20029;-56
2023/01/07 05:02:40;;;;;;;7.63;3.40;;;;;;;8.88;100.00;101318.75;5052172;28;20445;-57
2023/01/07 05:05:06;;;;;;;6.00;3.55;;;;;;;8.86;100.00;101321.47;5044308;28;20112;-57
2023/01/07 05:07:32;;;;;;;6.72;3.45;;;;;;;8.85;100.00;101318.91;5055781;28;20440;-58
2023/01/07 05:09:57;;;;;;;5.10;3.45;;;;;;;8.85;100.00;101317.13;5053592;28;20021;-57
2023/01/07 05:12:22;;;;;;;5.40;3.13;;;;;;;8.82;100.00;101319.09;5040965;28;20045;-56
2023/01/07 05:14:48;;;;;;;5.75;3.03;;;;;;;8.81;100.00;101314.75;5051146;28;20021;-58
2023/01/07 05:17:13;;;;;;;5.63;3.42;;;;;;;8.79;100.00;101308.69;5052104;28;20021;-58
2023/01/07 05:19:38;;;;;;;5.22;3.17;;;;;;;8.77;100.00;101313.25;5048551;28;20450;-57
2023/01/07 05:22:03;;;;;;;6.35;3.20;;;;;;;8.76;100.00;101317.69;5051700;28;20035;-58
2023/01/07 05:24:29;;;;;;;6.43;3.22;;;;;;;8.75;100.00;101302.75;5053923;28;20093;-58
2023/01/07 05:26:54;;;;;;;4.30;3.17;;;;;;;8.74;100.00;101297.53;5048390;28;20531;-58
2023/01/07 05:29:20;;;;;;;3.97;2.83;;;;;;;8.73;100.00;101306.41;5055691;28;20048;-57
2023/01/07 05:31:45;;;;;;;3.60;2.97;;;;;;;8.73;100.00;101304.63;5054467;28;20029;-58
2023/01/07 05:34:11;;;;;;;3.50;3.10;;;;;;;8.74;100.00;101300.19;5055497;28;20028;-57
2023/01/07 05:36:36;;;;;;;6.13;2.88;;;;;;;8.72;100.00;101297.63;5047461;28;20033;-57
2023/01/07 05:39:01;;;;;;;5.55;2.67;;;;;;;8.73;100.00;101304.63;5055053;28;20660;-58
2023/01/07 05:41:27;;;;;;;2.83;2.63;;;;;;;8.75;100.00;101304.53;5044680;28;20044;-57
2023/01/07 05:43:52;;;;;;;5.43;3.25;;;;;;;8.76;100.00;101308.88;5049000;28;20076;-58
2023/01/07 05:46:17;;;;;;;4.10;2.60;;;;;;;8.77;100.00;101305.28;5055445;28;20028;-57
2023/01/07 05:48:43;;;;;;;4.50;2.85;;;;;;;8.78;100.00;101307.00;5054652;28;20474;-58
2023/01/07 05:51:08;;;;;;;3.00;2.70;;;;;;;8.78;100.00;101302.56;5049045;28;20029;-57
2023/01/07 05:53:33;;;;;;;3.97;2.85;;;;;;;8.80;100.00;101299.81;5054885;28;20385;-58
2023/01/07 05:55:59;;;;;;;5.00;2.83;;;;;;;8.78;100.00;101293.78;5052573;28;20033;-58
2023/01/07 05:58:26;;;;;;;2.88;2.58;;;;;;;8.80;100.00;101299.81;5055032;28;20033;-57
2023/01/07 06:00:52;;;;;;;2.83;2.50;;;;;;;8.79;100.00;101293.69;5054848;28;20024;-57
2023/01/07 06:03:18;;;;;;;4.78;2.65;;;;;;;8.80;100.00;101295.34;5053126;28;20079;-58
2023/01/07 06:05:43;;;;;;;4.07;2.90;;;;;;;8.82;100.00;101292.63;5054444;28;20029;-58
2023/01/07 06:08:09;;;;;;;4.10;2.72;;;;;;;8.82;100.00;101284.66;5054566;28;20097;-58
2023/01/07 06:10:34;;;;;;;6.10;2.60;;;;;;;8.83;100.00;101284.56;5048462;28;20034;-58
2023/01/07 06:13:01;;;;;;;3.60;2.47;;;;;;;8.85;100.00;101284.47;5045231;28;20484;-54
2023/01/07 06:15:26;;;;;;;2.83;2.25;;;;;;;8.86;100.00;101289.69;5054271;28;20021;-58
2023/01/07 06:17:51;;;;;;;4.50;2.25;;;;;;;8.87;100.00;101279.94;5054190;28;20047;-57
2023/01/07 06:20:17;;;;;;;3.53;2.40;;;;;;;8.87;100.00;101279.94;5051748;28;20383;-57
2023/01/07 06:22:42;;;;;;;3.42;2.28;;;;;;;8.87;100.00;101277.28;5053936;28;20112;-56
2023/01/07 06:25:08;;;;;;;5.53;2.40;;;;;;;8.85;100.00;101264.13;5053902;28;20028;-55
2023/01/07 06:27:34;;;;;;;5.22;2.42;;;;;;;8.85;100.00;101256.19;5049548;28;20111;-57
2023/01/07 06:29:59;;;;;;;4.38;2.10;;;;;;;8.85;100.00;101263.28;5054146;28;20551;-57
2023/01/07 06:32:24;;;;;;;3.70;1.92;;;;;;;8.85;100.00;101255.34;5049123;28;20486;-56
2023/01/07 06:34:50;;;;;;;2.53;2.30;;;;;;;8.84;100.00;101249.22;5053447;28;20021;-56
2023/01/07 06:37:16;;;;;;;2.25;2.00;;;;;;;8.85;100.00;101247.41;5044060;28;20075;-57
2023/01/07 06:39:42;;;;;;;4.70;2.10;;;;;;;8.83;100.00;101244.00;5054090;28;20036;-56
2023/01/07 06:42:07;;;;;;;4.20;1.95;;;;;;;8.83;100.00;101252.78;5047948;28;20029;-57
2023/01/07 06:44:32;;;;;;;2.00;1.90;;;;;;;8.85;100.00;101248.25;5054243;28;20104;-56
2023/01/07 06:46:58;;;;;;;2.00;1.85;;;;;;;8.85;100.00;101245.59;5053900;28;20032;-56
2023/01/07 06:49:23;;;;;;;2.95;2.00;;;;;;;8.85;100.00;101245.59;5048282;28;20025;-57
2023/01/07 06:51:48;;;;;;;2.42;1.55;;;;;;;8.85;100.00;101245.59;5053919;28;20028;-56
2023/01/07 06:54:14;;;;;;;1.92;1.73;;;;;;;8.85;100.00;101240.28;5053564;28;20040;-57
2023/01/07 06:56:39;;;;;;;2.30;2.03;;;;;;;8.87;100.00;101237.56;5046672;28;20029;-57
2023/01/07 06:59:04;;;;;;;2.88;1.95;;;;;;;8.85;100.00;101239.47;5053453;28;20095;-58
2023/01/07 07:01:30;;;;;;;1.80;1.70;;;;;;;8.86;100.00;101242.00;5053779;28;20102;-56
2023/01/07 07:03:55;;;;;;;3.55;1.70;;;;;;;8.86;100.00;101239.38;5053292;28;20025;-57
2023/01/07 07:06:20;;;;;;;2.22;1.98;;;;;;;8.85;100.00;101242.94;5044333;28;20025;-57
2023/01/07 07:08:46;;;;;;;1.92;1.80;;;;;;;8.83;100.00;101230.75;5054836;28;20108;-57
2023/01/07 07:11:11;;;;;;;1.80;1.70;;;;;;;8.82;100.00;101229.06;5037222;28;20056;-57
2023/01/07 07:13:36;;;;;;;2.65;1.88;;;;;;;8.83;100.00;101222.81;5057970;28;20071;-57
2023/01/07 07:16:02;;;;;;;3.38;2.00;;;;;;;8.82;100.00;101214.00;5048244;28;20025;-58
2023/01/07 07:18:29;;;;;;;1.88;1.60;;;;;;;8.80;100.00;101212.41;5051844;28;20030;-57
2023/01/07 07:20:57;;;;;;;2.15;1.70;;;;;;;8.80;100.00;101217.72;5041233;28;20083;-58
2023/01/07 07:23:23;;;;;;;2.72;1.90;;;;;;;8.79;100.00;101210.69;5038145;28;20071;-57
2023/01/07 07:25:49;;;;;;;1.88;1.45;;;;;;;8.80;100.00;101212.41;5055147;28;20025;-57
2023/01/07 07:28:15;;;;;;;3.83;2.10;;;;;;;8.79;100.00;101214.22;5054566;28;20453;-58
2023/01/07 07:30:41;;;;;;;1.90;1.58;;;;;;;8.83;100.00;101213.06;5051612;28;20040;-58
2023/01/07 07:33:07;;;;;;;2.88;1.80;;;;;;;8.80;100.00;101212.41;5049701;28;20479;-58
2023/01/07 07:35:34;;;;;;;2.55;2.00;;;;;;;8.79;100.00;101205.41;5055682;28;20497;-56
2023/01/07 07:37:59;;;;;;;2.13;1.92;;;;;;;8.77;100.00;101205.50;5026688;28;20041;-57
2023/01/07 07:40:26;;;;;;;1.98;1.70;;;;;;;8.76;100.00;101195.88;5038275;28;20033;-59
2023/01/07 07:42:52;;;;;;;1.52;1.42;;;;;;;8.75;100.00;101202.09;5018424;28;20108;-57
2023/01/07 07:45:18;;;;;;;2.65;1.77;;;;;;;8.75;100.00;101195.97;5040127;28;20025;-59
2023/01/07 07:47:45;;;;;;;2.75;1.90;;;;;;;8.75;100.00;101196.81;5038756;28;20041;-57
2023/01/07 07:50:10;;;;;;;1.80;1.70;;;;;;;8.75;100.00;101196.81;5042668;28;20112;-58
2023/01/07 07:52:36;;;;;;;1.63;1.50;;;;;;;8.74;100.00;101187.16;5039325;28;20080;-57
2023/01/07 07:55:01;;;;;;;1.92;1.83;;;;;;;8.74;100.00;101196.91;5036720;28;20450;-56
2023/01/07 07:57:26;;;;;;;2.83;1.75;;;;;;;8.75;99.88;101188.03;5041480;28;20037;-58
2023/01/07 07:59:51;;;;;;;4.47;1.70;;;;;;;8.73;99.96;101188.13;5039910;28;20123;-58
2023/01/07 08:02:18;;;;;;;5.35;1.80;;;;;;;8.73;99.53;101184.59;5048764;28;20026;-58
2023/01/07 08:04:44;;;;;;;2.33;1.83;;;;;;;8.75;99.47;101175.63;5018104;28;20037;-56
2023/01/07 08:07:11;;;;;;;3.05;1.70;;;;;;;8.75;99.25;101166.84;5049816;28;20122;-56
2023/01/07 08:09:36;;;;;;;1.90;1.80;;;;;;;8.76;98.45;101173.81;5051201;28;20120;-56
2023/01/07 08:12:02;;;;;;;1.95;1.65;;;;;;;8.76;98.69;101166.75;5051114;28;20129;-57
2023/01/07 08:14:27;;;;;;;2.83;1.75;;;;;;;8.77;98.67;101173.72;5052793;28;20044;-58
2023/01/07 08:16:54;;;;;;;2.03;1.33;;;;;;;8.77;98.87;101170.22;5052076;28;20470;-57
2023/01/07 08:19:20;;;;;;;3.97;2.00;;;;;;;8.78;98.90;101174.59;5053270;28;20080;-58
2023/01/07 08:21:47;;;;;;;2.53;1.63;;;;;;;8.79;98.46;101165.66;5030562;28;20059;-58
2023/01/07 08:24:13;;;;;;;3.13;1.85;;;;;;;8.79;98.30;101169.19;5036032;28;20036;-56
2023/01/07 08:26:39;;;;;;;2.00;1.65;;;;;;;8.79;98.81;101158.59;5037063;28;20739;-57
2023/01/07 08:29:05;;;;;;;4.28;1.85;;;;;;;8.84;97.75;101163.56;5040425;28;20053;-58
2023/01/07 08:31:30;;;;;;;3.25;2.00;;;;;;;8.84;98.11;101155.63;5045202;28;20029;-57
2023/01/07 08:33:55;;;;;;;4.60;2.05;;;;;;;8.88;96.93;101155.34;5036265;28;20389;-59
2023/01/07 08:36:20;;;;;;;1.60;1.50;;;;;;;8.90;96.65;101160.53;5040764;28;20045;-56
2023/01/07 08:38:51;;;;;;;2.95;1.85;;;;;;;8.91;97.24;101156.97;5039891;28;20047;-58
2023/01/07 08:41:16;;;;;;;3.00;1.60;;;;;;;8.89;97.10;101151.75;5039792;28;20041;-56
2023/01/07 08:43:43;;;;;;;1.63;1.52;;;;;;;8.91;96.76;101149.00;5019245;28;20038;-56
2023/01/07 08:46:09;;;;;;;4.25;1.70;;;;;;;8.93;96.47;101146.25;5040794;28;20025;-55
2023/01/07 08:48:37;;;;;;;2.10;1.60;;;;;;;8.94;96.13;101146.13;5043563;28;20522;-54
2023/01/07 08:51:03;;;;;;;3.33;1.83;;;;;;;8.96;96.08;101146.03;5049734;28;20059;-57
2023/01/07 08:53:28;;;;;;;2.33;1.80;;;;;;;8.98;95.86;101142.34;5048120;28;20036;-58
2023/01/07 08:55:53;;;;;;;2.90;1.80;;;;;;;8.99;95.59;101144.06;5051521;28;20033;-57
2023/01/07 08:58:19;;;;;;;3.10;2.05;;;;;;;9.01;95.38;101139.50;5052409;28;20068;-54
2023/01/07 09:00:45;;;;;;;2.45;1.88;;;;;;;9.00;95.87;101148.41;5049539;28;20025;-56
2023/01/07 09:03:10;;;;;;;2.08;1.65;;;;;;;9.02;95.06;101143.84;5039436;28;20041;-58
2023/01/07 09:05:35;;;;;;;1.67;1.58;;;;;;;9.04;94.39;101144.63;5045698;28;20110;-57
2023/01/07 09:08:02;;;;;;;3.25;1.40;;;;;;;9.06;94.43;101139.22;5044898;28;20476;-56
2023/01/07 09:10:28;;;;;;;3.13;1.60;;;;;;;9.07;94.94;101130.28;5038569;28;20025;-55
2023/01/07 09:12:54;;;;;;;1.55;1.45;;;;;;;9.07;94.88;101125.84;5037879;28;20111;-56
2023/01/07 09:15:19;;;;;;;2.80;1.55;;;;;;;9.08;94.69;101121.41;5044991;28;20491;-57
2023/01/07 09:17:44;;;;;;;2.95;1.55;;;;;;;9.10;93.50;101116.84;5046440;28;20033;-57
2023/01/07 09:20:10;;;;;;;1.60;1.42;;;;;;;9.13;93.48;101118.47;5043813;28;20045;-55
2023/01/07 09:22:36;;;;;;;1.70;1.60;;;;;;;9.13;93.54;101116.66;5050805;28;20116;-53
2023/01/07 09:25:03;;;;;;;1.55;1.45;;;;;;;9.15;93.22;101119.22;5052816;28;20043;-55
2023/01/07 09:27:28;;;;;;;2.00;1.60;;;;;;;9.16;92.99;101108.50;5047674;28;20540;-57
2023/01/07 09:29:57;;;;;;;2.30;1.60;;;;;;;9.18;92.96;101109.25;5049934;28;20026;-56
2023/01/07 09:32:22;;;;;;;1.90;1.40;;;;;;;9.20;92.86;101104.69;5047636;28;20033;-55
2023/01/07 09:34:47;;;;;;;1.58;1.48;;;;;;;9.22;92.37;101108.06;5025067;28;20028;-53
2023/01/07 09:37:13;;;;;;;1.48;1.38;;;;;;;9.25;91.55;101101.72;5044331;28;20059;-55
2023/01/07 09:39:38;;;;;;;3.40;1.70;;;;;;;9.26;91.65;101096.34;5046541;28;20021;-56
2023/01/07 09:42:12;;;;;;;2.10;1.33;;;;;;;9.27;91.26;101089.22;5041746;28;20041;-54
2023/01/07 09:44:43;;;;;;;1.30;1.20;;;;;;;9.34;90.18;101081.69;5041901;28;20029;-52
2023/01/07 09:47:11;;;;;;;1.50;1.40;;;;;;;9.37;89.98;101087.66;5044146;28;20103;-52
2023/01/07 09:49:38;;;;;;;1.30;1.20;;;;;;;9.39;89.07;101080.47;5039841;28;20415;-55
2023/01/07 09:52:11;;;;;;;1.40;1.30;;;;;;;9.42;89.69;101074.09;5038975;28;20108;-52
2023/01/07 09:54:38;;;;;;;1.58;1.48;;;;;;;9.46;89.62;101075.59;5039527;28;20025;-55
2023/01/07 09:57:04;;;;;;;1.30;1.20;;;;;;;9.54;88.66;101067.09;5039736;28;20026;-55
2023/01/07 09:59:30;;;;;;;1.33;1.23;;;;;;;9.64;88.09;101065.50;5045325;28;20029;-57
2023/01/07 10:02:16;;;;;;;1.42;1.20;;;;;;;9.72;88.20;101059.66;5041959;28;20029;-56
2023/01/07 10:04:51;;;;;;;1.63;1.10;;;;;;;9.84;88.49;101061.44;5036197;28;20395;-56
2023/01/07 10:07:38;;;;;;;1.58;1.30;;;;;;;9.93;88.94;101057.34;5021531;28;20461;-53
2023/01/07 10:10:30;;;;;;;1.85;1.20;;;;;;;10.02;87.91;101055.81;5038078;28;20399;-54
2023/01/07 10:13:26;;;;;;;1.70;1.40;;;;;;;10.09;88.00;101046.47;5038496;28;20331;-56
2023/01/07 10:16:09;;;;;;;2.88;1.20;;;;;;;10.16;85.67;101037.97;5044637;28;20021;-56
2023/01/07 10:19:13;;;;;;;1.67;1.00;;;;;;;10.24;86.35;101020.63;5039640;28;20037;-56
2023/01/07 10:22:01;;;;;;;1.60;1.25;;;;;;;10.27;86.13;101015.09;5041958;28;20044;-56
2023/01/07 10:24:47;;;;;;;1.48;1.38;;;;;;;10.33;86.05;101020.00;5042141;28;20379;-56
2023/01/07 10:27:17;;;;;;;1.63;1.52;;;;;;;10.38;84.23;101019.66;5039485;28;20471;-55
2023/01/07 10:29:47;;;;;;;2.65;1.20;;;;;;;10.45;82.29;101003.16;5037792;28;20029;-57
2023/01/07 10:32:21;;;;;;;1.50;1.40;;;;;;;10.49;83.11;100998.47;5038881;28;20036;-56
2023/01/07 10:34:52;;;;;;;1.85;1.35;;;;;;;10.55;81.59;100992.72;5039823;28;20025;-57
2023/01/07 10:37:37;;;;;;;1.90;1.30;;;;;;;10.60;83.36;100992.38;5037686;28;20029;-56
2023/01/07 10:40:15;;;;;;;3.58;1.52;;;;;;;10.64;81.30;100984.06;5043976;28;20112;-56
2023/01/07 10:42:43;;;;;;;1.30;1.20;;;;;;;10.70;80.75;100993.38;5043393;28;20032;-57
2023/01/07 10:45:32;;;;;;;2.45;1.50;;;;;;;10.76;81.76;100978.78;5041614;28;20641;-58
2023/01/07 10:48:00;;;;;;;1.02;1.02;;;;;;;10.79;80.34;100970.56;5003164;28;20040;-57
2023/01/07 10:50:47;;;;;;;1.00;0.95;;;;;;;10.83;78.63;100967.56;5037552;28;20033;-55
2023/01/07 10:53:44;;;;;;;1.70;1.30;;;;;;;10.85;79.84;100965.66;5037772;28;20108;-56
2023/01/07 10:56:27;;;;;;;1.90;0.90;;;;;;;10.89;79.63;100950.31;5045666;28;20429;-56
2023/01/07 10:58:52;;;;;;;1.40;1.30;;;;;;;10.91;76.73;100949.25;5042681;28;20027;-56
2023/01/07 11:01:34;;;;;;;1.92;0.98;;;;;;;10.92;78.92;100944.75;5041947;28;20030;-57
2023/01/07 11:04:00;;;;;;;1.13;1.13;;;;;;;10.93;76.70;100952.63;5049837;28;20029;-56
2023/01/07 11:06:39;;;;;;;1.33;1.10;;;;;;;10.93;77.12;100938.50;5048405;28;20492;-56
2023/01/07 11:09:09;;;;;;;1.20;1.10;;;;;;;10.92;77.12;100944.75;5043428;28;20044;-56
2023/01/07 11:11:36;;;;;;;2.15;1.23;;;;;;;10.91;76.54;100940.44;5045968;28;20453;-56
2023/01/07 11:14:14;;;;;;;1.10;1.10;;;;;;;10.91;76.25;100933.31;5038749;28;20041;-56
2023/01/07 11:16:48;;;;;;;1.52;1.42;;;;;;;10.90;75.62;100934.25;5043082;28;20101;-56
2023/01/07 11:19:14;;;;;;;1.50;1.40;;;;;;;10.92;75.58;100924.38;5048414;28;20040;-58
2023/01/07 11:21:45;;;;;;;2.17;1.30;;;;;;;10.92;76.10;100927.03;5046617;28;20033;-55
2023/01/07 11:24:25;;;;;;;1.90;1.33;;;;;;;10.97;77.68;100909.88;5040678;28;20028;-58
2023/01/07 11:26:57;;;;;;;1.10;1.10;;;;;;;10.93;75.13;100909.28;5037963;28;20044;-58
2023/01/07 11:29:26;;;;;;;1.90;1.20;;;;;;;10.95;76.42;100901.19;5039853;28;20029;-58
2023/01/07 11:31:54;;;;;;;2.80;1.45;;;;;;;10.95;73.96;100895.88;5041286;28;20033;-58
2023/01/07 11:34:27;;;;;;;1.53;1.30;;;;;;;10.96;75.18;100882.47;5039936;28;20060;-58